createdAt,value
2023-01-20T00:01:31.830Z,99409.27
2023-01-20T00:03:59.301Z,99410.48
2023-01-20T00:06:30.255Z,99416.90
2023-01-20T00:08:59.697Z,99419.54
2023-01-20T00:11:27.347Z,99427.50
2023-01-20T00:13:56.097Z,99425.86
2023-01-20T00:16:23.868Z,99432.74
2023-01-20T00:18:51.564Z,99434.59
2023-01-20T00:21:19.002Z,99435.21
2023-01-20T00:23:47.001Z,99443.30
2023-01-20T00:26:19.399Z,99446.63
2023-01-20T00:28:46.963Z,99446.81
2023-01-20T00:31:19.165Z,99450.11
2023-01-20T00:33:46.847Z,99462.13
2023-01-20T00:36:14.303Z,99477.75
2023-01-20T00:38:41.224Z,99481.70
2023-01-20T00:41:08.455Z,99489.94
2023-01-20T00:43:36.208Z,99502.83
2023-01-20T00:46:04.313Z,99519.23
2023-01-20T00:48:32.458Z,99528.19
2023-01-20T00:50:59.482Z,99541.73
2023-01-20T00:53:26.779Z,99551.92
2023-01-20T00:55:54.260Z,99567.83
2023-01-20T00:58:21.493Z,99574.34
2023-01-20T01:00:49.944Z,99588.59
2023-01-20T01:03:17.491Z,99603.38
2023-01-20T01:05:44.980Z,99618.99
2023-01-20T01:08:12.473Z,99631.63
2023-01-20T01:10:40.702Z,99640.78
2023-01-20T01:13:08.393Z,99648.06
2023-01-20T01:15:36.086Z,99654.20
2023-01-20T01:18:03.983Z,99663.55
2023-01-20T01:20:31.213Z,99675.98
2023-01-20T01:22:58.659Z,99689.05
2023-01-20T01:25:25.976Z,99697.80
2023-01-20T01:27:53.351Z,99715.36
2023-01-20T01:30:20.934Z,99723.95
2023-01-20T01:32:48.496Z,99740.71
2023-01-20T01:35:16.440Z,99756.58
2023-01-20T01:37:44.012Z,99774.90
2023-01-20T01:40:11.966Z,99792.02
2023-01-20T01:42:41.341Z,99804.14
2023-01-20T01:45:13.771Z,99817.06
2023-01-20T01:48:02.589Z,99833.26
2023-01-20T01:50:40.477Z,99847.34
2023-01-20T01:53:07.551Z,99858.25
2023-01-20T01:55:36.184Z,99858.50
2023-01-20T01:58:03.099Z,99870.27
2023-01-20T02:00:30.076Z,99884.48
2023-01-20T02:02:57.161Z,99905.27
2023-01-20T02:05:24.396Z,99914.85
2023-01-20T02:07:51.301Z,99932.96
2023-01-20T02:10:18.257Z,99947.20
2023-01-20T02:12:47.512Z,99961.23
2023-01-20T02:15:15.188Z,99971.20
2023-01-20T02:17:54.058Z,99985.89
2023-01-20T02:20:50.552Z,99994.96
2023-01-20T02:23:26.768Z,100010.04
2023-01-20T02:26:15.960Z,100031.27
2023-01-20T02:29:05.797Z,100052.73
2023-01-20T02:31:51.839Z,100064.44
2023-01-20T02:34:27.832Z,100086.69
2023-01-20T02:37:00.524Z,100090.41
2023-01-20T02:39:29.049Z,100101.56
2023-01-20T02:42:19.156Z,100109.39
2023-01-20T02:45:09.931Z,100123.36
2023-01-20T02:47:50.968Z,100133.25
2023-01-20T02:50:48.577Z,100142.63
2023-01-20T02:53:15.900Z,100154.38
2023-01-20T02:55:46.490Z,100158.98
2023-01-20T02:58:29.166Z,100166.86
2023-01-20T03:01:43.241Z,100181.36
2023-01-20T03:04:11.175Z,100193.01
2023-01-20T03:06:39.852Z,100194.29
2023-01-20T03:09:08.088Z,100203.55
2023-01-20T03:11:36.513Z,100221.68
2023-01-20T03:14:12.393Z,100230.02
2023-01-20T03:16:39.804Z,100233.09
2023-01-20T03:19:07.321Z,100235.98
2023-01-20T03:21:34.640Z,100240.70
2023-01-20T03:24:03.062Z,100245.15
2023-01-20T03:26:31.336Z,100260.13
2023-01-20T03:28:59.293Z,100266.99
2023-01-20T03:31:29.354Z,100267.71
2023-01-20T03:33:58.509Z,100269.15
2023-01-20T03:36:27.320Z,100269.85
2023-01-20T03:38:54.913Z,100272.00
2023-01-20T03:41:33.554Z,100270.39
2023-01-20T03:44:26.242Z,100281.31
2023-01-20T03:46:53.818Z,100290.09
2023-01-20T03:49:44.797Z,100295.56
2023-01-20T03:52:47.734Z,100306.13
2023-01-20T03:55:20.937Z,100316.67
2023-01-20T03:57:59.331Z,100319.38
2023-01-20T04:00:26.869Z,100327.40
2023-01-20T04:02:57.380Z,100332.48
2023-01-20T04:05:24.772Z,100333.86
2023-01-20T04:07:52.219Z,100343.98
2023-01-20T04:10:19.764Z,100353.77
2023-01-20T04:12:47.171Z,100367.34
2023-01-20T04:15:14.905Z,100370.51
2023-01-20T04:17:42.529Z,100381.59
2023-01-20T04:20:10.758Z,100388.73
2023-01-20T04:22:46.679Z,100400.17
2023-01-20T04:25:20.911Z,100404.90
2023-01-20T04:27:48.546Z,100409.30
2023-01-20T04:30:15.989Z,100401.94
2023-01-20T04:32:43.370Z,100405.77
2023-01-20T04:35:13.704Z,100408.08
2023-01-20T04:37:41.597Z,100412.69
2023-01-20T04:40:10.009Z,100416.27
2023-01-20T04:42:37.580Z,100419.71
2023-01-20T04:45:05.581Z,100426.61
2023-01-20T04:47:33.883Z,100429.73
2023-01-20T04:50:01.325Z,100434.39
2023-01-20T04:52:28.784Z,100441.38
2023-01-20T04:54:56.327Z,100449.08
2023-01-20T04:57:23.812Z,100453.23
2023-01-20T04:59:51.316Z,100458.24
2023-01-20T05:02:18.917Z,100470.65
2023-01-20T05:04:46.721Z,100482.08
2023-01-20T05:07:14.129Z,100491.58
2023-01-20T05:09:41.483Z,100496.80
2023-01-20T05:12:08.831Z,100510.23
2023-01-20T05:14:36.286Z,100517.21
2023-01-20T05:17:03.642Z,100518.70
2023-01-20T05:19:31.089Z,100521.17
2023-01-20T05:21:59.882Z,100526.42
2023-01-20T05:24:27.157Z,100532.17
2023-01-20T05:26:54.664Z,100539.04
2023-01-20T05:29:22.119Z,100541.31
2023-01-20T05:31:49.874Z,100540.86
2023-01-20T05:34:17.445Z,100540.13
2023-01-20T05:36:44.840Z,100551.17
2023-01-20T05:39:12.213Z,100552.36
2023-01-20T05:41:39.619Z,100553.66
2023-01-20T05:44:07.128Z,100563.65
2023-01-20T05:46:34.682Z,100564.18
2023-01-20T05:49:03.289Z,100570.94
2023-01-20T05:51:30.889Z,100571.27
2023-01-20T05:53:58.546Z,100575.17
2023-01-20T05:56:26.045Z,100575.91
2023-01-20T05:58:56.466Z,100579.87
2023-01-20T06:01:24.145Z,100583.88
2023-01-20T06:03:51.632Z,100590.09
2023-01-20T06:06:19.540Z,100596.14
2023-01-20T06:08:49.404Z,100598.20
2023-01-20T06:11:18.754Z,100592.73
2023-01-20T06:13:49.395Z,100586.77
2023-01-20T06:16:17.574Z,100583.18
2023-01-20T06:18:45.030Z,100584.54
2023-01-20T06:21:12.791Z,100583.80
2023-01-20T06:23:40.400Z,100584.42
2023-01-20T06:26:10.645Z,100584.14
2023-01-20T06:28:37.981Z,100584.59
2023-01-20T06:31:07.443Z,100580.56
2023-01-20T06:33:35.273Z,100585.80
2023-01-20T06:36:02.708Z,100590.31
2023-01-20T06:38:31.586Z,100588.80
2023-01-20T06:41:03.526Z,100588.27
2023-01-20T06:43:31.943Z,100585.20
2023-01-20T06:46:06.983Z,100581.68
2023-01-20T06:48:34.740Z,100583.67
2023-01-20T06:51:06.777Z,100584.14
2023-01-20T06:53:34.413Z,100586.31
2023-01-20T06:56:01.988Z,100587.39
2023-01-20T06:58:30.817Z,100590.10
2023-01-20T07:00:58.548Z,100591.82
2023-01-20T07:03:26.038Z,100589.17
2023-01-20T07:06:01.199Z,100589.63
2023-01-20T07:08:28.816Z,100589.65
2023-01-20T07:10:56.381Z,100586.92
2023-01-20T07:13:24.065Z,100590.65
2023-01-20T07:15:51.411Z,100591.30
2023-01-20T10:41:42.967Z,100615.89
2023-01-20T10:44:12.586Z,100573.92
2023-01-20T10:47:19.308Z,100576.09
2023-01-20T10:50:20.525Z,100573.34
2023-01-20T10:53:07.369Z,100572.39
2023-01-20T10:56:09.120Z,100575.33
2023-01-20T10:58:37.206Z,100578.54
2023-01-20T11:01:07.082Z,100579.34
2023-01-20T11:03:36.953Z,100577.10
2023-01-20T11:06:04.679Z,100583.07
2023-01-20T11:08:32.229Z,100581.12
2023-01-20T11:11:01.885Z,100586.27
2023-01-20T11:13:29.287Z,100586.73
2023-01-20T11:15:57.819Z,100590.38
2023-01-20T11:18:30.041Z,100588.52
2023-01-20T11:21:08.663Z,100588.31
2023-01-20T11:23:38.948Z,100590.59
2023-01-20T11:26:15.511Z,100591.77
2023-01-20T11:28:57.238Z,100591.61
2023-01-20T11:31:45.173Z,100595.89
2023-01-20T11:34:27.729Z,100591.52
2023-01-20T11:37:14.251Z,100589.11
2023-01-20T11:39:50.737Z,100589.58
2023-01-20T11:42:26.149Z,100588.92
2023-01-20T11:45:19.563Z,100592.25
2023-01-20T11:48:02.992Z,100602.33
2023-01-20T11:50:32.470Z,100607.95
2023-01-20T11:53:22.245Z,100614.45
2023-01-20T11:55:57.373Z,100618.40
2023-01-20T11:58:26.446Z,100618.27
2023-01-20T12:01:05.682Z,100624.10
2023-01-20T12:03:45.357Z,100629.48
2023-01-20T12:06:21.843Z,100624.77
2023-01-20T12:08:56.689Z,100620.94
2023-01-20T12:11:51.835Z,100616.08
2023-01-20T12:14:23.779Z,100625.84
2023-01-20T12:17:03.522Z,100624.18
2023-01-20T12:19:42.401Z,100626.98
2023-01-20T12:22:14.245Z,100629.37
2023-01-20T12:25:08.741Z,100626.17
2023-01-20T12:27:41.863Z,100617.47
2023-01-20T12:30:25.086Z,100612.29
2023-01-20T12:32:52.687Z,100616.70
2023-01-20T12:35:20.114Z,100610.63
2023-01-20T12:38:04.855Z,100608.02
2023-01-20T12:40:52.673Z,100609.31
2023-01-20T12:43:32.482Z,100607.50
2023-01-20T12:46:39.971Z,100604.85
2023-01-20T12:49:36.393Z,100606.48
2023-01-20T12:52:20.213Z,100603.05
2023-01-20T12:54:54.917Z,100608.25
2023-01-20T12:57:52.382Z,100606.95
2023-01-20T13:00:25.282Z,100604.60
2023-01-20T13:02:59.095Z,100604.28
2023-01-20T13:05:57.453Z,100602.48
2023-01-20T13:09:03.273Z,100601.16
2023-01-20T13:11:51.904Z,100596.72
2023-01-20T13:14:25.794Z,100596.08
2023-01-20T13:17:26.027Z,100596.61
2023-01-20T13:19:54.257Z,100597.53
2023-01-20T13:22:23.867Z,100593.56
2023-01-20T13:24:55.618Z,100601.63
2023-01-20T13:27:30.609Z,100599.42
2023-01-20T13:29:59.408Z,100595.71
2023-01-20T13:32:28.847Z,100594.42
2023-01-20T13:34:56.644Z,100593.24
2023-01-20T13:37:28.856Z,100594.60
2023-01-20T13:39:58.284Z,100590.63
2023-01-20T13:42:38.821Z,100589.16
2023-01-20T13:45:14.798Z,100586.72
2023-01-20T13:48:08.440Z,100583.82
2023-01-20T13:50:37.343Z,100581.29
2023-01-20T13:53:10.989Z,100585.91
2023-01-20T13:55:45.703Z,100581.22
2023-01-20T13:58:15.941Z,100582.64
2023-01-20T14:00:43.877Z,100585.71
2023-01-20T14:03:38.409Z,100579.25
2023-01-20T14:06:12.171Z,100573.49
2023-01-20T14:08:43.915Z,100572.42
2023-01-20T14:11:15.781Z,100572.90
2023-01-20T14:13:51.807Z,100571.86
2023-01-20T14:16:25.089Z,100569.21
2023-01-20T14:18:53.474Z,100564.76
2023-01-20T14:21:24.758Z,100566.54
2023-01-20T14:23:52.328Z,100562.14
2023-01-20T14:26:30.364Z,100557.73
2023-01-20T14:29:03.887Z,100556.48
2023-01-20T14:31:37.230Z,100553.05
2023-01-20T14:34:26.977Z,100552.03
2023-01-20T14:36:55.825Z,100545.85
2023-01-20T14:39:28.186Z,100549.02
2023-01-20T14:41:56.520Z,100544.13
2023-01-20T14:44:25.882Z,100544.70
2023-01-20T14:46:55.918Z,100542.53
2023-01-20T14:49:28.053Z,100539.84
2023-01-20T14:51:55.471Z,100540.48
2023-01-20T14:54:39.577Z,100541.67
2023-01-20T14:57:18.459Z,100542.12
2023-01-20T14:59:45.900Z,100539.23
2023-01-20T15:02:28.294Z,100536.80
2023-01-20T15:04:55.866Z,100538.66
2023-01-20T15:07:23.277Z,100545.36
2023-01-20T15:10:04.696Z,100545.23
2023-01-20T15:12:34.221Z,100549.57
2023-01-20T15:15:13.817Z,100547.00
2023-01-20T15:18:09.467Z,100547.62
2023-01-20T15:20:39.036Z,100545.79
2023-01-20T15:23:23.187Z,100543.11
2023-01-20T15:25:52.367Z,100548.27
2023-01-20T15:28:42.425Z,100547.67
2023-01-20T15:31:14.700Z,100547.11
2023-01-20T15:33:42.330Z,100549.61
2023-01-20T15:36:30.153Z,100551.90
2023-01-20T15:38:57.577Z,100547.77
2023-01-20T15:41:25.228Z,100548.65
2023-01-20T15:43:52.760Z,100553.86
2023-01-20T15:46:20.430Z,100555.75
2023-01-20T15:48:48.396Z,100554.98
2023-01-20T15:51:18.210Z,100554.29
2023-01-20T15:53:46.488Z,100553.86
2023-01-20T15:56:20.975Z,100550.23
2023-01-20T15:58:49.801Z,100556.94
2023-01-20T16:01:19.399Z,100552.68
2023-01-20T16:03:46.819Z,100542.63
2023-01-20T16:06:15.971Z,100540.64
2023-01-20T16:08:46.554Z,100536.88
2023-01-20T16:11:15.257Z,100537.45
2023-01-20T16:13:42.866Z,100535.09
2023-01-20T16:16:15.992Z,100533.77
2023-01-20T16:18:43.368Z,100532.05
2023-01-20T16:21:12.170Z,100528.61
2023-01-20T16:23:39.666Z,100526.99
2023-01-20T16:26:27.047Z,100521.25
2023-01-20T16:28:57.562Z,100519.83
2023-01-20T16:31:27.240Z,100513.67
2023-01-20T16:33:55.044Z,100511.15
2023-01-20T20:44:30.084Z,100242.92
2023-01-20T20:46:58.445Z,100250.09
2023-01-20T20:49:26.584Z,100246.52
2023-01-20T20:51:54.085Z,100245.33
2023-01-20T20:54:21.660Z,100240.81
2023-01-20T20:56:49.486Z,100239.46
2023-01-20T20:59:19.848Z,100235.89
2023-01-20T21:01:47.477Z,100235.31
2023-01-20T21:04:16.000Z,100238.80
2023-01-20T21:06:43.783Z,100232.80
2023-01-20T21:09:11.271Z,100236.30
2023-01-20T21:11:38.949Z,100237.44
2023-01-20T21:14:07.665Z,100240.17
2023-01-20T21:16:35.502Z,100238.08
2023-01-20T21:19:03.533Z,100236.60
2023-01-20T21:21:30.953Z,100237.67
2023-01-20T21:23:58.916Z,100236.61
2023-01-20T21:26:29.824Z,100227.73
2023-01-20T21:28:57.899Z,100228.09
2023-01-20T21:31:26.865Z,100224.83
2023-01-20T21:33:55.643Z,100225.48
2023-01-20T21:36:23.465Z,100219.42
2023-01-20T21:38:51.071Z,100218.54
2023-01-20T21:41:18.835Z,100217.83
2023-01-20T21:44:06.071Z,100220.12
2023-01-20T21:46:39.277Z,100223.71
2023-01-20T21:49:27.180Z,100224.45
2023-01-20T21:52:14.185Z,100226.81
2023-01-20T21:54:41.819Z,100226.19
2023-01-20T21:57:09.501Z,100226.89
2023-01-20T21:59:37.223Z,100227.39
2023-01-20T22:02:05.161Z,100229.34
2023-01-20T22:04:33.118Z,100222.39
2023-01-20T22:07:00.626Z,100228.23
2023-01-20T22:09:27.989Z,100231.96
2023-01-20T22:11:55.597Z,100233.91
2023-01-20T22:14:22.957Z,100233.05
2023-01-20T22:16:50.409Z,100235.80
2023-01-20T22:19:17.805Z,100233.29
2023-01-20T22:21:45.185Z,100233.06
2023-01-20T22:24:12.644Z,100227.60
2023-01-20T22:26:40.449Z,100228.73
2023-01-20T22:29:07.979Z,100228.27
2023-01-20T22:31:35.400Z,100229.23
2023-01-20T22:34:04.779Z,100224.19
2023-01-20T22:36:32.670Z,100221.11
2023-01-20T22:39:00.165Z,100221.60
2023-01-20T22:41:27.687Z,100221.55
2023-01-20T22:43:56.009Z,100223.20
2023-01-20T22:46:24.716Z,100222.66
2023-01-20T22:48:52.447Z,100219.33
2023-01-20T22:51:21.680Z,100222.23
2023-01-20T22:53:50.531Z,100223.02
2023-01-20T22:56:19.959Z,100222.90
2023-01-20T22:58:47.755Z,100218.55
2023-01-20T23:01:17.388Z,100223.20
2023-01-20T23:03:45.226Z,100219.39
2023-01-20T23:06:12.817Z,100217.20
2023-01-20T23:08:40.507Z,100211.27
2023-01-20T23:11:15.441Z,100210.71
2023-01-20T23:13:42.911Z,100205.71
2023-01-20T23:16:13.355Z,100198.38
2023-01-20T23:18:40.908Z,100194.66
2023-01-20T23:21:08.471Z,100187.42
2023-01-20T23:23:35.860Z,100184.95
2023-01-20T23:26:08.532Z,100181.45
2023-01-20T23:28:36.324Z,100173.75
2023-01-20T23:31:08.220Z,100165.54
2023-01-20T23:33:35.655Z,100164.11
2023-01-20T23:36:06.727Z,100160.79
2023-01-20T23:38:34.224Z,100155.77
2023-01-20T23:41:02.624Z,100149.65
2023-01-20T23:43:31.055Z,100143.79
2023-01-20T23:45:59.471Z,100139.92
2023-01-20T23:48:27.186Z,100134.92
2023-01-20T23:50:56.464Z,100119.14
2023-01-20T23:53:24.074Z,100119.42
2023-01-20T23:55:53.240Z,100108.92
2023-01-20T23:58:20.567Z,100104.54
